Time;durP1;ratioP1;P1;durP2;ratioP2;P2;SDS_P1;SDS_P2;PMS_P1;PMS_P2;Temp;Humidity;BMP_temperature;BMP_pressure;BME280_temperature;BME280_humidity;BME280_pressure;Samples;Min_cycle;Max_cycle;Signal;HPM_P1;HPM_P2
2022/01/14 00:01:48;;;;;;;50.20;21.97;;;;;;;1.13;99.39;102338.22;5074238;28;20196;-78
2022/01/14 00:04:15;;;;;;;48.33;23.67;;;;;;;1.08;99.36;102357.69;5074891;28;20188;-77
2022/01/14 00:06:43;;;;;;;51.93;22.43;;;;;;;1.16;100.00;102349.56;5074400;28;20597;-77
2022/01/14 00:09:11;;;;;;;48.03;22.20;;;;;;;1.05;100.00;102354.94;5074460;28;20193;-77
2022/01/14 00:11:41;;;;;;;53.73;22.87;;;;;;;1.01;100.00;102341.06;5074206;28;20199;-78
2022/01/14 00:14:21;;;;;;;57.40;24.37;;;;;;;1.09;100.00;102332.06;5073802;28;20269;-77
2022/01/14 00:16:48;;;;;;;53.07;22.53;;;;;;;1.18;100.00;102324.78;4721704;28;10000421;-78
2022/01/14 00:19:15;;;;;;;52.03;22.43;;;;;;;1.19;100.00;102329.13;5071015;28;20246;-77
2022/01/14 00:21:44;;;;;;;48.03;21.63;;;;;;;1.07;100.00;102320.81;5072848;28;20251;-77
2022/01/14 00:24:22;;;;;;;44.37;19.53;;;;;;;1.09;100.00;102326.00;5074296;28;20227;-77
2022/01/14 00:32:20;;;;;;;51.33;21.93;;;;;;;1.21;100.00;102330.88;5071714;28;20227;-77
2022/01/14 00:34:46;;;;;;;49.40;20.53;;;;;;;1.19;100.00;102326.56;5074105;28;20281;-79
2022/01/14 00:37:17;;;;;;;51.77;22.30;;;;;;;1.19;100.00;102313.72;5074071;28;20258;-78
2022/01/14 00:39:44;;;;;;;55.67;23.57;;;;;;;1.09;100.00;102318.28;5073790;28;20196;-78
2022/01/14 00:42:11;;;;;;;47.27;21.50;;;;;;;1.13;100.00;102313.41;5073257;28;20235;-76
2022/01/14 00:44:37;;;;;;;54.97;22.57;;;;;;;1.13;100.00;102315.06;5073646;28;20193;-78
2022/01/14 00:47:04;;;;;;;58.67;23.47;;;;;;;1.16;100.00;102307.53;5073958;28;20254;-77
2022/01/14 00:49:31;;;;;;;50.10;21.67;;;;;;;1.25;100.00;102299.38;5073724;28;20212;-77
2022/01/14 00:51:58;;;;;;;53.30;23.20;;;;;;;1.30;100.00;102298.78;5074331;28;20228;-77
2022/01/14 00:54:26;;;;;;;57.00;24.30;;;;;;;1.33;100.00;102305.78;5074073;28;20262;-78
2022/01/14 00:57:13;;;;;;;53.63;23.53;;;;;;;1.33;100.00;102305.78;5074373;28;20211;-79
2022/01/14 00:59:39;;;;;;;54.03;22.77;;;;;;;1.34;100.00;102302.41;5073659;28;20208;-77
2022/01/14 01:02:05;;;;;;;55.67;23.33;;;;;;;1.38;100.00;102307.75;5073707;28;20250;-77
2022/01/14 01:04:36;;;;;;;50.23;20.77;;;;;;;1.43;100.00;102310.56;5073973;28;20246;-77
2022/01/14 01:07:06;;;;;;;44.70;20.47;;;;;;;1.49;100.00;102312.56;5074430;28;20232;-78
2022/01/14 01:09:35;;;;;;;48.17;20.90;;;;;;;1.44;100.00;102317.47;5073501;28;20204;-78
2022/01/14 01:12:13;;;;;;;49.77;20.80;;;;;;;1.46;99.93;102317.56;5073030;28;20223;-77
2022/01/14 01:14:44;;;;;;;46.67;22.17;;;;;;;1.44;99.75;102314.91;5073297;28;20220;-77
2022/01/14 01:17:11;;;;;;;53.57;22.27;;;;;;;1.45;100.00;102313.19;5073806;28;20689;-77
2022/01/14 01:19:38;;;;;;;52.47;23.60;;;;;;;1.45;100.00;102326.06;5073363;28;20200;-77
2022/01/14 01:22:04;;;;;;;48.10;21.67;;;;;;;1.50;99.62;102322.91;5073841;28;20232;-77
2022/01/14 01:24:31;;;;;;;47.97;22.73;;;;;;;1.55;100.00;102318.00;5073631;28;20253;-77
2022/01/14 01:27:03;;;;;;;44.30;20.60;;;;;;;1.55;99.73;102324.03;5073764;28;20207;-78
2022/01/14 01:29:45;;;;;;;58.83;22.90;;;;;;;1.51;99.92;102326.41;5073327;28;20200;-77
2022/01/14 01:32:11;;;;;;;55.57;23.13;;;;;;;1.53;100.00;102333.38;5073789;28;20227;-78
2022/01/14 01:34:38;;;;;;;45.63;21.27;;;;;;;1.54;99.41;102334.25;5073778;28;20220;-76
2022/01/14 01:37:05;;;;;;;38.47;20.23;;;;;;;1.55;99.37;102338.59;5073078;28;20613;-77
2022/01/14 01:39:34;;;;;;;43.60;20.57;;;;;;;1.53;99.57;102338.50;5073115;28;20201;-77
2022/01/14 01:42:06;;;;;;;49.27;21.60;;;;;;;1.49;99.47;102334.03;5073006;28;20340;-77
2022/01/14 01:44:33;;;;;;;44.20;21.27;;;;;;;1.50;99.95;102330.63;5073303;28;20185;-77
2022/01/14 01:47:00;;;;;;;46.37;20.87;;;;;;;1.50;100.00;102333.22;5073035;28;20748;-77
2022/01/14 01:49:29;;;;;;;44.50;21.60;;;;;;;1.48;100.00;102326.22;5072803;28;20607;-75
2022/01/14 01:51:56;;;;;;;45.47;20.90;;;;;;;1.52;99.76;102325.56;5073097;28;20345;-77
2022/01/14 01:54:24;;;;;;;41.63;20.90;;;;;;;1.55;99.25;102331.75;5072968;28;20201;-77
2022/01/14 01:56:51;;;;;;;49.10;21.40;;;;;;;1.55;100.00;102320.59;5072576;28;20697;-78
2022/01/14 01:59:19;;;;;;;44.90;21.40;;;;;;;1.58;99.59;102320.72;5072257;28;20727;-77
2022/01/14 02:01:45;;;;;;;37.60;20.10;;;;;;;1.53;99.27;102330.78;5072784;28;20266;-77
2022/01/14 02:04:13;;;;;;;41.90;20.17;;;;;;;1.54;99.22;102322.25;5072995;28;20216;-77
2022/01/14 02:06:40;;;;;;;43.10;20.27;;;;;;;1.55;99.10;102325.72;5072910;28;20205;-77
2022/01/14 02:09:08;;;;;;;36.20;19.67;;;;;;;1.61;99.36;102331.16;5072672;28;20201;-77
2022/01/14 02:11:35;;;;;;;43.97;22.77;;;;;;;1.58;98.94;102326.72;5072280;28;20205;-77
2022/01/14 02:14:11;;;;;;;39.97;19.37;;;;;;;1.57;99.05;102325.00;5071208;28;20205;-77
2022/01/14 02:17:01;;;;;;;37.20;19.20;;;;;;;1.58;99.66;102318.13;5072583;28;20646;-77
2022/01/14 02:19:42;;;;;;;42.43;20.83;;;;;;;1.63;99.47;102316.69;5072514;28;20272;-75
2022/01/14 02:22:11;;;;;;;42.47;19.40;;;;;;;1.65;99.24;102317.63;5072410;28;20224;-77
2022/01/14 02:27:19;;;;;;;37.40;19.87;;;;;;;1.68;98.99;102320.34;5071509;28;20200;-77
2022/01/14 02:29:45;;;;;;;41.63;18.83;;;;;;;1.64;99.84;102318.44;5072167;28;20792;-77
2022/01/14 02:32:12;;;;;;;33.03;18.90;;;;;;;1.60;99.66;102308.81;5072446;28;20274;-77
2022/01/14 02:34:39;;;;;;;36.97;19.10;;;;;;;1.61;100.00;102305.44;5072630;28;20201;-77
2022/01/14 02:37:07;;;;;;;43.13;19.57;;;;;;;1.61;100.00;102297.72;5072016;28;20204;-77
2022/01/14 02:39:33;;;;;;;38.67;19.40;;;;;;;1.63;100.00;102278.06;5071756;28;20201;-77
2022/01/14 02:42:00;;;;;;;33.37;19.53;;;;;;;1.60;100.00;102277.91;5072003;28;20232;-77
2022/01/14 02:44:29;;;;;;;40.33;19.83;;;;;;;1.61;100.00;102263.38;5071639;28;20207;-77
2022/01/14 02:47:03;;;;;;;35.90;20.07;;;;;;;1.54;100.00;102257.91;5072354;28;20220;-77
2022/01/14 02:49:31;;;;;;;43.40;20.37;;;;;;;1.58;100.00;102246.94;5071399;28;20228;-77
2022/01/14 02:52:03;;;;;;;48.17;20.83;;;;;;;1.57;100.00;102241.75;5071980;28;20231;-77
2022/01/14 02:54:33;;;;;;;45.60;21.73;;;;;;;1.55;100.00;102228.81;5072084;28;20180;-76
2022/01/14 02:57:02;;;;;;;42.60;21.07;;;;;;;1.61;100.00;102230.78;5072415;28;20197;-77
2022/01/14 02:59:29;;;;;;;34.73;19.97;;;;;;;1.56;100.00;102222.84;5071037;28;20670;-77
2022/01/14 03:01:57;;;;;;;42.50;21.47;;;;;;;1.56;100.00;102209.97;5072216;28;20231;-78
2022/01/14 03:04:24;;;;;;;49.27;22.07;;;;;;;1.58;100.00;102195.47;5071676;28;20767;-77
2022/01/14 03:06:51;;;;;;;39.33;20.47;;;;;;;1.63;100.00;102189.69;5071704;28;20254;-77
2022/01/14 03:09:18;;;;;;;37.27;18.80;;;;;;;1.67;100.00;102186.44;5071689;28;20246;-77
2022/01/14 03:11:48;;;;;;;40.07;20.03;;;;;;;1.73;100.00;102197.88;5072053;28;20209;-77
2022/01/14 03:14:21;;;;;;;44.90;20.37;;;;;;;1.71;100.00;102199.50;5069736;28;20205;-77
2022/01/14 03:16:48;;;;;;;41.33;19.73;;;;;;;1.72;100.00;102198.69;5071732;28;20579;-78
2022/01/14 03:19:19;;;;;;;40.27;20.70;;;;;;;1.77;100.00;102196.34;5071721;28;20228;-77
2022/01/14 03:21:46;;;;;;;31.70;18.73;;;;;;;1.81;100.00;102202.50;5072491;28;20197;-77
2022/01/14 03:24:20;;;;;;;39.50;20.57;;;;;;;1.75;100.00;102203.97;5072189;28;20220;-77
2022/01/14 03:26:50;;;;;;;41.40;21.13;;;;;;;1.76;100.00;102203.19;5072514;28;20216;-78
2022/01/14 03:29:18;;;;;;;41.17;20.20;;;;;;;1.80;100.00;102204.19;5071403;28;20197;-75
2022/01/14 03:31:46;;;;;;;39.63;18.83;;;;;;;1.83;100.00;102198.31;5071861;28;20216;-78
2022/01/14 03:34:12;;;;;;;39.47;20.20;;;;;;;1.82;100.00;102197.41;5071539;28;20200;-77
2022/01/14 03:36:39;;;;;;;45.00;21.93;;;;;;;1.76;100.00;102192.00;5071629;28;20259;-78
2022/01/14 03:39:06;;;;;;;46.43;22.80;;;;;;;1.77;100.00;102202.34;5071203;28;20732;-78
2022/01/14 03:41:33;;;;;;;41.20;20.63;;;;;;;1.68;100.00;102194.22;5071105;28;20208;-74
2022/01/14 03:44:00;;;;;;;44.63;21.37;;;;;;;1.74;100.00;102180.75;5071221;28;20224;-77
2022/01/14 03:46:27;;;;;;;39.17;20.53;;;;;;;1.79;100.00;102185.28;5071451;28;20197;-77
2022/01/14 03:48:53;;;;;;;39.10;20.73;;;;;;;1.81;100.00;102199.94;5071394;28;20242;-76
2022/01/14 03:51:20;;;;;;;44.07;20.07;;;;;;;1.87;100.00;102206.25;5071200;28;20201;-78
2022/01/14 03:53:47;;;;;;;38.43;19.80;;;;;;;1.87;100.00;102211.38;5071649;28;20251;-78
2022/01/14 03:56:14;;;;;;;40.33;20.37;;;;;;;1.72;100.00;102211.56;5071491;28;20200;-77
2022/01/14 03:58:41;;;;;;;42.37;21.10;;;;;;;1.77;100.00;102194.63;5071362;28;20200;-78
2022/01/14 04:01:09;;;;;;;38.00;20.63;;;;;;;1.71;100.00;102190.91;5071098;28;20199;-77
2022/01/14 04:03:35;;;;;;;44.00;21.43;;;;;;;1.70;100.00;102177.13;5071195;28;20248;-78
2022/01/14 04:06:02;;;;;;;49.57;21.97;;;;;;;1.75;100.00;102178.25;5071202;28;20211;-78
2022/01/14 04:08:28;;;;;;;46.87;21.13;;;;;;;1.78;100.00;102172.34;5071387;28;20202;-78
2022/01/14 04:10:56;;;;;;;44.67;20.80;;;;;;;1.82;100.00;102175.94;5071049;28;20205;-78
2022/01/14 04:13:34;;;;;;;46.03;21.10;;;;;;;1.81;100.00;102169.91;5070437;28;20219;-78
2022/01/14 04:16:01;;;;;;;45.70;20.10;;;;;;;1.85;100.00;102166.66;5071451;28;20194;-78
2022/01/14 04:18:29;;;;;;;48.00;20.80;;;;;;;1.85;100.00;102158.06;5071178;28;20607;-78
2022/01/14 04:20:55;;;;;;;40.10;21.30;;;;;;;1.85;100.00;102158.06;5070847;28;20262;-78
2022/01/14 04:23:23;;;;;;;44.47;21.20;;;;;;;1.88;100.00;102160.75;5070667;28;20742;-78
2022/01/14 04:25:51;;;;;;;47.10;20.30;;;;;;;1.88;100.00;102148.75;5071122;28;20221;-78
2022/01/14 04:28:19;;;;;;;50.13;21.87;;;;;;;1.87;100.00;102138.41;5070989;28;20201;-78
2022/01/14 04:30:45;;;;;;;48.63;21.87;;;;;;;1.87;100.00;102138.41;5070400;28;20249;-78
2022/01/14 04:33:12;;;;;;;49.60;22.40;;;;;;;1.82;100.00;102127.91;5071039;28;20229;-77
2022/01/14 04:35:40;;;;;;;49.37;22.40;;;;;;;1.82;100.00;102124.44;5070881;28;20200;-78
2022/01/14 04:38:06;;;;;;;52.83;22.73;;;;;;;1.85;100.00;102120.31;5074630;28;20197;-77
2022/01/14 04:40:33;;;;;;;40.10;20.13;;;;;;;1.85;100.00;102111.72;5074363;28;20201;-77
2022/01/14 04:43:00;;;;;;;48.23;21.47;;;;;;;1.91;100.00;102106.84;5073806;28;20777;-78
2022/01/14 04:45:40;;;;;;;43.60;19.60;;;;;;;1.90;100.00;102103.38;5074137;28;20714;-77
2022/01/14 04:48:08;;;;;;;38.93;20.50;;;;;;;1.92;100.00;102098.28;5074291;28;20192;-77
2022/01/14 04:50:35;;;;;;;44.10;20.27;;;;;;;1.98;100.00;102096.88;5074321;28;20250;-77
2022/01/14 04:53:03;;;;;;;40.63;19.43;;;;;;;2.01;100.00;102092.66;5074133;28;20691;-78
2022/01/14 04:55:30;;;;;;;37.00;18.53;;;;;;;2.03;100.00;102088.47;5074274;28;20659;-78
2022/01/14 04:57:57;;;;;;;45.47;19.40;;;;;;;1.94;100.00;102083.78;5073754;28;20614;-77
2022/01/14 05:00:26;;;;;;;45.77;20.17;;;;;;;1.96;100.00;102077.00;5073856;28;20205;-77
2022/01/14 05:02:54;;;;;;;41.47;19.63;;;;;;;2.01;100.00;102072.94;5074042;28;20278;-78
2022/01/14 05:05:22;;;;;;;38.90;20.53;;;;;;;2.03;100.00;102075.59;5074177;28;20273;-77
2022/01/14 05:07:50;;;;;;;38.13;19.10;;;;;;;2.07;100.00;102068.03;5073772;28;20295;-77
2022/01/14 05:10:33;;;;;;;41.27;19.13;;;;;;;2.03;100.00;102060.13;5073753;28;20205;-78
2022/01/14 05:12:59;;;;;;;45.97;20.43;;;;;;;2.01;100.00;102059.19;5073263;28;20231;-77
2022/01/14 05:15:26;;;;;;;48.33;20.70;;;;;;;2.05;100.00;102043.03;5074080;28;20262;-78
2022/01/14 05:17:52;;;;;;;45.63;21.13;;;;;;;2.04;100.00;102041.28;5073945;28;20258;-78
2022/01/14 05:20:19;;;;;;;45.77;21.17;;;;;;;1.98;100.00;102040.22;5073293;28;20239;-77
2022/01/14 05:22:46;;;;;;;45.87;20.40;;;;;;;1.96;100.00;102036.69;5073464;28;20228;-77
2022/01/14 05:25:14;;;;;;;40.53;21.23;;;;;;;1.98;100.00;102042.78;5073511;28;20581;-77
2022/01/14 05:27:43;;;;;;;48.77;22.33;;;;;;;2.01;100.00;102052.34;5073620;28;20197;-77
2022/01/14 05:30:12;;;;;;;45.10;22.43;;;;;;;2.04;100.00;102054.16;5072985;28;20246;-78
2022/01/14 05:32:45;;;;;;;40.57;20.43;;;;;;;2.06;100.00;102043.13;5073045;28;20220;-77
2022/01/14 05:35:12;;;;;;;47.23;20.37;;;;;;;2.05;100.00;102046.50;5073339;28;20643;-77
2022/01/14 05:37:38;;;;;;;41.50;19.53;;;;;;;2.09;100.00;102043.22;5073703;28;20202;-78
2022/01/14 05:40:07;;;;;;;41.80;20.53;;;;;;;2.07;100.00;102031.97;5073179;28;20201;-76
2022/01/14 05:42:34;;;;;;;40.87;20.17;;;;;;;2.11;100.00;102028.72;5155674;22;20228;-74
2022/01/14 05:45:02;;;;;;;44.10;19.50;;;;;;;2.11;100.00;102038.16;5085514;28;20320;-74
2022/01/14 05:47:28;;;;;;;46.07;20.20;;;;;;;2.15;100.00;102034.88;5072949;28;20386;-75
2022/01/14 05:49:54;;;;;;;46.47;21.30;;;;;;;2.12;100.00;102029.59;5072906;28;20205;-74
2022/01/14 05:52:21;;;;;;;39.20;19.87;;;;;;;2.19;100.00;102022.19;5073680;28;20693;-76
2022/01/14 05:54:48;;;;;;;38.83;19.03;;;;;;;2.19;100.00;102034.19;5093048;28;20208;-76
2022/01/14 05:57:14;;;;;;;45.63;20.50;;;;;;;2.27;100.00;102037.06;5093117;28;20196;-77
2022/01/14 05:59:41;;;;;;;39.63;19.77;;;;;;;2.29;100.00;102041.47;5092976;28;20253;-77
2022/01/14 06:02:09;;;;;;;38.33;19.33;;;;;;;2.35;100.00;102057.19;5093142;28;20613;-75
2022/01/14 06:04:35;;;;;;;38.37;19.90;;;;;;;2.21;100.00;102066.03;5092790;28;20286;-76
2022/01/14 06:07:03;;;;;;;38.90;19.80;;;;;;;2.14;100.00;102061.44;5092748;28;20204;-76
2022/01/14 06:09:29;;;;;;;39.07;20.03;;;;;;;2.18;100.00;102063.31;5092669;28;20250;-75
2022/01/14 06:11:56;;;;;;;41.13;19.67;;;;;;;2.23;100.00;102046.38;5093192;28;20201;-76
2022/01/14 06:14:22;;;;;;;34.40;19.30;;;;;;;2.39;100.00;102045.31;5098100;28;20219;-75
2022/01/14 06:16:49;;;;;;;33.57;18.80;;;;;;;2.36;100.00;102043.50;5097722;28;20200;-76
2022/01/14 06:19:16;;;;;;;33.43;18.67;;;;;;;2.19;100.00;102045.38;5092740;28;20200;-76
2022/01/14 06:21:43;;;;;;;38.53;19.33;;;;;;;2.24;100.00;102031.78;5092971;28;20203;-76
2022/01/14 06:24:09;;;;;;;39.20;19.83;;;;;;;2.35;100.00;102031.41;5091828;28;20228;-75
2022/01/14 06:26:35;;;;;;;31.27;18.97;;;;;;;2.23;100.00;102036.06;5092633;28;20552;-75
2022/01/14 06:29:02;;;;;;;38.90;19.93;;;;;;;2.17;100.00;102030.66;5092745;28;20245;-76
2022/01/14 06:31:29;;;;;;;39.07;19.27;;;;;;;2.21;100.00;102021.38;5094545;28;20645;-75
2022/01/14 06:33:55;;;;;;;45.90;20.97;;;;;;;2.24;100.00;102024.06;5103432;28;20223;-75
2022/01/14 06:36:23;;;;;;;35.77;19.73;;;;;;;2.29;100.00;102030.28;5101511;28;20606;-74
2022/01/14 06:38:49;;;;;;;36.37;18.77;;;;;;;2.39;100.00;102035.88;5101893;28;20195;-75
2022/01/14 06:41:15;;;;;;;33.63;19.07;;;;;;;2.30;100.00;102050.06;5111911;28;20261;-76
2022/01/14 06:43:42;;;;;;;39.07;20.10;;;;;;;2.29;100.00;102067.22;5110378;28;20231;-76
2022/01/14 06:46:08;;;;;;;35.07;19.00;;;;;;;2.30;100.00;102058.69;5103333;28;20219;-76
2022/01/14 06:48:35;;;;;;;31.93;18.63;;;;;;;2.26;100.00;102061.06;5112907;28;20203;-76
2022/01/14 06:51:01;;;;;;;33.67;18.50;;;;;;;2.26;100.00;102067.13;5112148;28;20226;-75
2022/01/14 06:53:29;;;;;;;54.60;22.23;;;;;;;2.22;100.00;102059.19;5112436;28;20224;-75
2022/01/14 06:55:56;;;;;;;37.40;18.60;;;;;;;2.17;100.00;102059.88;5111788;28;20215;-75
2022/01/14 06:58:22;;;;;;;43.17;19.23;;;;;;;2.16;100.00;102063.28;5112113;28;20199;-76
2022/01/14 07:00:49;;;;;;;41.30;20.40;;;;;;;2.11;100.00;102061.31;5111922;28;20195;-75
2022/01/14 07:03:15;;;;;;;41.37;21.80;;;;;;;2.09;100.00;102060.38;5112157;28;20223;-75
2022/01/14 07:05:41;;;;;;;41.30;20.47;;;;;;;2.24;100.00;102075.59;5111941;28;20614;-75
2022/01/14 07:08:08;;;;;;;38.73;20.03;;;;;;;2.27;100.00;102081.75;5112081;28;20630;-76
2022/01/14 07:10:37;;;;;;;41.50;21.40;;;;;;;2.25;100.00;102090.25;5111711;28;20602;-75
2022/01/14 07:13:04;;;;;;;41.80;21.70;;;;;;;2.21;100.00;102096.09;5109987;28;20229;-75
2022/01/14 07:15:30;;;;;;;38.30;21.57;;;;;;;2.23;100.00;102094.44;5103274;28;20187;-76
2022/01/14 07:17:57;;;;;;;44.93;20.17;;;;;;;2.24;100.00;102088.47;5111804;28;20264;-76
2022/01/14 07:20:23;;;;;;;51.60;27.02;;;;;;;2.26;100.00;102090.31;5110948;28;20430;-75
2022/01/14 07:22:50;;;;;;;52.07;23.30;;;;;;;2.27;100.00;102089.47;5112006;28;20222;-76
2022/01/14 07:25:17;;;;;;;44.57;22.20;;;;;;;2.24;100.00;102098.78;5111785;28;20227;-75
2022/01/14 07:27:45;;;;;;;45.90;23.23;;;;;;;2.22;100.00;102092.69;5112066;28;20195;-76
2022/01/14 07:30:14;;;;;;;43.17;21.43;;;;;;;2.28;100.00;102086.09;5111632;28;20203;-76
2022/01/14 07:32:41;;;;;;;46.23;21.10;;;;;;;2.26;100.00;102092.88;5112055;28;20336;-76
2022/01/14 07:35:08;;;;;;;46.63;22.93;;;;;;;2.23;100.00;102092.75;5112014;28;20215;-76
2022/01/14 07:37:35;;;;;;;45.73;22.60;;;;;;;2.30;100.00;102083.56;5111687;28;20202;-76
2022/01/14 07:40:02;;;;;;;43.53;23.60;;;;;;;2.43;100.00;102093.56;5111488;28;20202;-75
2022/01/14 07:42:28;;;;;;;47.03;23.57;;;;;;;2.46;100.00;102097.97;5111784;28;20207;-76
2022/01/14 07:44:56;;;;;;;48.73;21.23;;;;;;;2.48;100.00;102106.63;5101696;28;20231;-77
2022/01/14 07:47:22;;;;;;;45.77;23.03;;;;;;;2.54;100.00;102110.38;5111310;28;20207;-76
2022/01/14 07:49:50;;;;;;;42.07;22.70;;;;;;;2.50;100.00;102107.59;5111045;28;20684;-77
2022/01/14 07:52:17;;;;;;;46.07;24.27;;;;;;;2.43;100.00;102106.47;5111646;28;20745;-76
2022/01/14 07:54:43;;;;;;;54.80;23.77;;;;;;;2.51;100.00;102111.94;5111788;28;20200;-76
2022/01/14 07:57:10;;;;;;;43.37;21.80;;;;;;;2.53;100.00;102121.47;5111208;28;20290;-76
2022/01/14 07:59:37;;;;;;;48.73;22.20;;;;;;;2.49;100.00;102123.88;5111370;28;20199;-76
2022/01/14 08:02:06;;;;;;;52.27;22.50;;;;;;;2.53;100.00;102124.06;5111866;28;20240;-76
2022/01/14 08:04:35;;;;;;;50.03;27.00;;;;;;;2.53;100.00;102126.63;5111714;28;20215;-77
2022/01/14 08:07:09;;;;;;;49.83;21.83;;;;;;;2.56;100.00;102134.50;5111801;28;20722;-76
2022/01/14 08:09:37;;;;;;;45.73;25.00;;;;;;;2.51;100.00;102133.41;5111234;28;20662;-76
2022/01/14 08:12:05;;;;;;;42.97;22.63;;;;;;;2.51;100.00;102133.41;5114124;28;20260;-76
2022/01/14 08:14:31;;;;;;;41.13;22.20;;;;;;;2.60;100.00;102140.66;5108731;28;20223;-76
2022/01/14 08:16:58;;;;;;;44.90;22.97;;;;;;;2.65;100.00;102148.59;5111718;28;20192;-76
2022/01/14 08:19:26;;;;;;;41.20;20.67;;;;;;;2.62;100.00;102151.03;5115169;28;20222;-77
2022/01/14 08:21:52;;;;;;;45.47;21.80;;;;;;;2.65;100.00;102167.50;5115218;28;20215;-76
2022/01/14 08:24:19;;;;;;;44.37;21.10;;;;;;;2.71;100.00;102170.34;5114935;28;20226;-76
2022/01/14 08:26:45;;;;;;;43.27;22.63;;;;;;;2.62;100.00;102175.13;5115026;28;20230;-76
2022/01/14 08:29:12;;;;;;;47.73;22.00;;;;;;;2.70;100.00;102172.88;5115043;28;20496;-76
2022/01/14 08:31:38;;;;;;;39.60;20.77;;;;;;;2.64;100.00;102180.34;5115003;28;20211;-76
2022/01/14 08:34:05;;;;;;;41.83;22.73;;;;;;;2.76;100.00;102188.59;5114942;28;20228;-76
2022/01/14 08:36:32;;;;;;;49.63;22.27;;;;;;;2.70;100.00;102186.63;5115249;28;20215;-76
2022/01/14 08:38:59;;;;;;;49.43;23.03;;;;;;;2.67;100.00;102201.97;5115381;28;20203;-78
2022/01/14 08:41:29;;;;;;;44.23;21.80;;;;;;;2.69;100.00;102200.31;5114736;28;20207;-77
2022/01/14 08:43:56;;;;;;;48.37;23.13;;;;;;;2.68;100.00;102190.84;5107937;28;20235;-76
2022/01/14 08:46:22;;;;;;;45.33;21.53;;;;;;;2.70;100.00;102194.38;5103537;28;20212;-77
2022/01/14 08:48:49;;;;;;;45.03;23.87;;;;;;;2.70;100.00;102196.06;5104877;28;20192;-76
2022/01/14 08:51:15;;;;;;;45.13;23.17;;;;;;;2.78;100.00;102192.97;5102819;28;20294;-76
2022/01/14 08:53:43;;;;;;;43.70;22.63;;;;;;;2.78;100.00;102199.84;5104400;28;20218;-75
2022/01/14 08:56:10;;;;;;;43.97;21.80;;;;;;;2.74;100.00;102201.41;5104366;28;20697;-75
2022/01/14 08:58:36;;;;;;;49.10;26.03;;;;;;;2.83;100.00;102195.75;5104926;28;20196;-76
2022/01/14 09:01:03;;;;;;;51.77;27.90;;;;;;;2.88;100.00;102190.78;5103119;28;20927;-75
2022/01/14 09:03:29;;;;;;;50.20;24.20;;;;;;;2.87;100.00;102189.88;5103272;28;20720;-75
2022/01/14 09:05:55;;;;;;;43.53;22.33;;;;;;;2.90;100.00;102192.59;5104028;28;20673;-75
2022/01/14 09:08:22;;;;;;;49.33;26.37;;;;;;;2.92;100.00;102185.81;5103751;28;20199;-76
2022/01/14 09:10:50;;;;;;;54.10;26.30;;;;;;;2.91;100.00;102185.75;5102314;28;20195;-76
2022/01/14 09:13:17;;;;;;;55.43;27.83;;;;;;;2.85;100.00;102188.94;5103516;28;20246;-76
2022/01/14 09:15:44;;;;;;;52.70;25.20;;;;;;;2.85;100.00;102183.78;5101064;28;20191;-76
2022/01/14 09:18:10;;;;;;;55.63;25.50;;;;;;;2.83;100.00;102171.66;5104794;28;20205;-76
2022/01/14 09:20:37;;;;;;;50.93;25.70;;;;;;;2.80;100.00;102180.16;5102127;28;20192;-76
2022/01/14 09:23:04;;;;;;;57.33;26.20;;;;;;;2.90;100.00;102169.41;5102928;28;20222;-75
2022/01/14 09:25:30;;;;;;;52.13;24.87;;;;;;;2.90;100.00;102163.38;5103153;28;20720;-74
2022/01/14 09:27:58;;;;;;;59.50;25.90;;;;;;;2.94;100.00;102171.28;5102291;28;20195;-76
2022/01/14 09:30:25;;;;;;;56.93;25.17;;;;;;;2.95;100.00;102174.72;5103340;28;20205;-76
2022/01/14 09:32:51;;;;;;;63.53;25.03;;;;;;;3.00;100.00;102160.31;5104383;28;20220;-77
2022/01/14 09:35:18;;;;;;;54.07;24.83;;;;;;;3.03;100.00;102164.72;5103503;28;20200;-77
2022/01/14 09:37:45;;;;;;;48.90;24.67;;;;;;;3.06;100.00;102165.72;5103287;28;20248;-76
2022/01/14 09:40:14;;;;;;;57.73;24.60;;;;;;;3.05;100.00;102168.25;5104095;28;20216;-76
2022/01/14 09:42:41;;;;;;;59.80;26.70;;;;;;;3.02;100.00;102163.84;5092369;28;20220;-75
2022/01/14 09:45:10;;;;;;;57.60;25.47;;;;;;;3.12;100.00;102158.22;5092845;28;20704;-75
2022/01/14 09:47:37;;;;;;;54.63;27.13;;;;;;;3.14;100.00;102156.59;5093128;28;20969;-77
2022/01/14 09:50:05;;;;;;;58.73;25.90;;;;;;;3.22;100.00;102174.09;5093029;28;20196;-77
2022/01/14 09:52:31;;;;;;;56.37;25.77;;;;;;;3.31;100.00;102175.31;5093118;28;20712;-76
2022/01/14 09:54:58;;;;;;;50.77;24.93;;;;;;;3.44;100.00;102178.38;5096496;28;20712;-78
2022/01/14 09:57:24;;;;;;;49.30;23.77;;;;;;;3.55;100.00;102193.44;5103921;28;20192;-78
2022/01/14 09:59:50;;;;;;;47.37;23.40;;;;;;;3.60;100.00;102208.22;5103499;28;20196;-75
2022/01/14 10:02:35;;;;;;;49.23;22.43;;;;;;;3.46;100.00;102210.28;5103648;28;20214;-75
2022/01/14 10:05:04;;;;;;;52.47;24.07;;;;;;;3.51;100.00;102219.09;5104375;28;20188;-78
2022/01/14 10:07:32;;;;;;;50.07;25.03;;;;;;;3.60;100.00;102214.28;5102668;28;20212;-77
2022/01/14 10:10:00;;;;;;;49.60;24.60;;;;;;;3.64;100.00;102235.94;5101943;28;20196;-78
2022/01/14 10:12:31;;;;;;;59.40;27.53;;;;;;;3.52;99.80;102260.44;5103068;28;20240;-76
2022/01/14 10:15:00;;;;;;;51.97;24.93;;;;;;;3.40;100.00;102253.94;5100265;28;20207;-77
2022/01/14 10:17:37;;;;;;;45.80;22.67;;;;;;;3.41;100.00;102246.25;5103523;28;20189;-78
2022/01/14 10:20:05;;;;;;;47.40;23.47;;;;;;;3.33;100.00;102242.47;5102923;28;20196;-77
2022/01/14 10:22:34;;;;;;;45.70;23.80;;;;;;;3.37;100.00;102231.47;5102423;28;20188;-78
2022/01/14 10:25:04;;;;;;;44.27;22.77;;;;;;;3.36;100.00;102225.41;5102410;28;20737;-77
2022/01/14 10:27:32;;;;;;;44.83;22.67;;;;;;;3.29;100.00;102213.09;5101659;28;20219;-77
2022/01/14 10:30:08;;;;;;;47.40;23.87;;;;;;;3.36;100.00;102217.66;5100551;28;20200;-75
2022/01/14 10:32:37;;;;;;;50.97;23.57;;;;;;;3.30;100.00;102203.66;5101254;28;20194;-77
2022/01/14 10:35:05;;;;;;;54.87;23.43;;;;;;;3.34;100.00;102205.53;5104290;28;20204;-76
2022/01/14 10:37:34;;;;;;;53.40;25.03;;;;;;;3.36;100.00;102199.59;5102652;28;20187;-77
2022/01/14 10:40:01;;;;;;;48.40;25.80;;;;;;;3.39;100.00;102204.00;5091786;28;20208;-78
2022/01/14 10:42:30;;;;;;;52.73;24.33;;;;;;;3.32;100.00;102196.84;5091891;28;20200;-77
2022/01/14 10:45:13;;;;;;;53.67;25.23;;;;;;;3.36;100.00;102190.97;5091967;28;20223;-78
2022/01/14 10:47:41;;;;;;;55.73;25.30;;;;;;;3.44;100.00;102184.41;5092127;28;20207;-78
2022/01/14 10:50:08;;;;;;;58.43;25.03;;;;;;;3.36;100.00;102178.94;5092043;28;20192;-78
2022/01/14 10:52:36;;;;;;;60.03;26.87;;;;;;;3.42;100.00;102180.00;5092238;28;20212;-77
2022/01/14 10:55:02;;;;;;;45.27;22.20;;;;;;;3.45;100.00;102174.94;5092032;28;20204;-77
2022/01/14 10:57:30;;;;;;;53.90;26.03;;;;;;;3.46;100.00;102172.44;5092627;28;20191;-77
2022/01/14 11:00:13;;;;;;;55.60;24.93;;;;;;;3.43;100.00;102174.91;5094595;28;20192;-77
2022/01/14 11:02:45;;;;;;;61.53;25.20;;;;;;;3.39;100.00;102178.19;5100711;28;20985;-78
2022/01/14 11:05:14;;;;;;;52.70;23.50;;;;;;;3.46;100.00;102168.97;5105356;28;20247;-76
2022/01/14 11:07:42;;;;;;;57.73;24.30;;;;;;;3.41;100.00;102173.97;5102071;28;20234;-78
2022/01/14 11:10:19;;;;;;;57.43;26.57;;;;;;;3.46;100.00;102185.34;5101634;28;20196;-77
2022/01/14 11:12:46;;;;;;;54.60;25.57;;;;;;;3.42;100.00;102167.09;5101980;28;20212;-77
2022/01/14 11:15:12;;;;;;;62.03;27.40;;;;;;;3.45;100.00;102173.28;5099489;28;20196;-77
2022/01/14 11:17:42;;;;;;;58.73;25.17;;;;;;;3.42;100.00;102154.19;5101847;28;20681;-77
2022/01/14 11:20:10;;;;;;;54.70;26.63;;;;;;;3.39;100.00;102149.81;5101321;28;20232;-77
2022/01/14 11:25:22;;;;;;;60.50;25.87;;;;;;;3.49;100.00;102139.00;5101391;28;20199;-77